Terminal Aerodrome Forecast
Issued by NWS

Home | Current Version | Previous Version | Graphics & Text | Print | Product List | Glossary Off
Versions: 1 2 3 4 5 6 7 8 9 10 11 12

407
FTUS45 KGGW 272323
TAFSDY
TAF
KSDY 272323Z 2800/2824 31011G19KT P6SM BKN110
     FM280200 33013G23KT P6SM VCTS BKN100CB
     FM280400 33011G19KT P6SM SCT110
     FM280800 32007KT P6SM FEW170=

USA.gov is the U.S. government's official web portal to all federal, state and local government web resources and services.